Impacts METAR Board
IDs:

KJFK - New York/Kennedy Int, NY, US

Updated at: 2200 UTC 14 Aug 2018
Potential Impact None Slight Moderate High
Time 14/10Z 14/11Z 14/12Z 14/13Z 14/14Z 14/15Z 14/16Z 14/17Z 14/18Z 14/19Z 14/20Z 14/21Z 14/22Z
Temp73 73 73 74 76 77 78 78 80 81 82 73 72
Dewpt73 73 73 72 72 73 72 72 73 71 71 67 72
Altim29.88 29.89 29.89 29.89 29.89 29.90 29.89 29.87 29.87 29.84 29.83 29.84 29.83
VIS8 7 10 10 10 10 10 10 10 10 10 6 10
CIG8 110 5 150 -- -- -- -- -- -- -- 26 110
CoverBKNBKNBKNBKNSCTSCTSCTSCTSCTSCTSCTBKNBKN
FltCatIFRVFRIFRVFRVFRVFRVFRVFRVFRVFRVFRMVFRVFR
WX--------------------VCTSTSRA-TSRA
WDir150170180190200210200200190180190310240
WSpd4 5 7 7 7 7 9 7 7 12 13 3 8
WGst-- -- -- -- -- -- -- -- -- -- -- -- --
Raw hourly METARs
KJFK 140951Z 15004KT 8SM BKN008 BKN150 BKN250 23/23 A2988 RMK AO2 SLP118 BKN008 V SCT T02280228
KJFK 141051Z 17005KT 7SM SCT008 BKN110 BKN150 BKN250 23/23 A2989 RMK AO2 SLP121 T02280228
KJFK 141151Z 18007KT 10SM BKN005 BKN110 BKN150 23/23 A2989 RMK AO2 SLP123 BKN005 V SCT 70060 T02280228 10228 20211 51008
KJFK 141251Z 19007KT 10SM SCT008 BKN150 23/22 A2989 RMK AO2 SLP122 SCT V BKN T02330222
KJFK 141351Z 20007KT 10SM SCT009 SCT120 SCT250 24/22 A2989 RMK AO2 SLP121 T02440222
KJFK 141451Z 21007KT 10SM FEW012 FEW027 SCT140 SCT250 25/23 A2990 RMK AO2 SLP124 TCU DSNT N T02500228 53001
KJFK 141551Z 20009KT 10SM SCT023TCU SCT250 26/22 A2989 RMK AO2 SLP122 TCU SW T02560222
KJFK 141651Z 20007KT 10SM FEW014 SCT025 SCT250 26/22 A2987 RMK AO2 SLP115 CB DSNT W TCU DSNT N T02560222
KJFK 141751Z 19007KT 10SM FEW015 SCT028 SCT250 27/23 A2987 RMK AO2 SLP113 TCU DSNT SW T02670228 10267 20228 58011
KJFK 141851Z 18012KT 10SM SCT040 SCT250 27/22 A2984 RMK AO2 SLP106 TCU DSNT SW-DSNT W T02720217
KJFK 141951Z 19013KT 10SM VCTS FEW020 SCT040CB SCT250 28/22 A2983 RMK AO2 LTG DSNT SW-N SLP100 OCNL LTGCG SW-NW CB SW-NW MOV E VCSH SW-NW T02780217
KJFK 142051Z 31003KT 6SM R04R/2800VP6000FT TSRA SCT018 BKN026CB BKN070 BKN250 23/19 A2984 RMK AO2 WSHFT 2011 LTG DSNT ALQDS RAB48 TSB31 SLP104 FRQ LTGICCG NE-SW TS NE-SW MOV NE P0000 60000 T02280194 55008
KJFK 142151Z 24008KT 10SM -TSRA SCT046CB SCT075 BKN110 BKN130 BKN250 22/22 A2983 RMK AO2 LTG DSNT NE-SE SLP102 OCNL LTGIC E TS E MOV E TCU DSNT S P0014 T02220222



Page loaded:  22:03 UTC  |   03:03 PM Pacific  |   04:03 PM Mountain  |   05:03 PM Central  |   06:03 PM Eastern

 

ADVISORIES

FORECASTS

FORECASTS

OBSERVATIONS

USER TOOLS

ABOUT US